createdAt,value
2018-04-19T00:00:17.568Z,0.00
2018-04-19T00:01:17.528Z,0.00
2018-04-19T00:02:17.482Z,0.00
2018-04-19T00:03:17.444Z,0.00
2018-04-19T00:04:17.402Z,0.00
2018-04-19T00:05:17.361Z,0.00
2018-04-19T00:06:17.323Z,0.00
2018-04-19T00:07:17.276Z,0.00
2018-04-19T00:08:17.236Z,0.00
2018-04-19T00:09:17.199Z,0.00
2018-04-19T00:10:17.157Z,0.00
2018-04-19T00:11:17.117Z,0.00
2018-04-19T00:12:17.075Z,0.00
2018-04-19T00:13:17.032Z,0.00
2018-04-19T00:14:16.990Z,0.00
2018-04-19T00:15:16.949Z,0.00
2018-04-19T00:16:16.912Z,0.00
2018-04-19T00:17:16.868Z,0.00
2018-04-19T00:18:16.832Z,0.00
2018-04-19T00:19:16.784Z,0.00
2018-04-19T00:20:16.745Z,0.00
2018-04-19T00:21:16.707Z,0.00
2018-04-19T00:22:16.661Z,0.00
2018-04-19T00:23:16.623Z,0.00
2018-04-19T00:24:16.579Z,0.00
2018-04-19T00:25:16.539Z,0.00
2018-04-19T00:26:16.497Z,0.00
2018-04-19T00:27:16.457Z,0.00
2018-04-19T00:28:16.416Z,0.00
2018-04-19T00:29:16.373Z,0.00
2018-04-19T00:30:16.332Z,0.00
2018-04-19T00:31:16.292Z,0.00
2018-04-19T00:32:16.254Z,0.00
2018-04-19T00:33:16.212Z,0.00
2018-04-19T00:34:16.176Z,0.00
2018-04-19T00:35:16.132Z,0.00
2018-04-19T00:36:16.088Z,0.00
2018-04-19T00:37:16.044Z,0.00
2018-04-19T00:38:16.005Z,0.00
2018-04-19T00:39:15.964Z,0.00
2018-04-19T00:40:15.922Z,0.00
2018-04-19T00:41:15.884Z,0.00
2018-04-19T00:42:15.842Z,0.00
2018-04-19T00:43:15.805Z,0.00
2018-04-19T00:44:15.758Z,0.00
2018-04-19T00:45:15.716Z,0.00
2018-04-19T00:46:15.676Z,0.00
2018-04-19T00:47:15.637Z,0.00
2018-04-19T00:48:15.603Z,0.00
2018-04-19T00:49:15.555Z,0.00
2018-04-19T00:50:15.513Z,0.00
2018-04-19T00:51:15.476Z,0.00
2018-04-19T00:52:15.431Z,0.00
2018-04-19T00:53:15.389Z,0.00
2018-04-19T00:54:15.347Z,0.00
2018-04-19T00:55:15.312Z,0.00
2018-04-19T00:56:15.272Z,0.00
2018-04-19T00:57:15.227Z,0.00
2018-04-19T00:58:15.183Z,0.00
2018-04-19T00:59:15.144Z,0.00
2018-04-19T01:00:15.103Z,0.00
2018-04-19T01:01:15.072Z,0.00
2018-04-19T01:02:15.018Z,0.00
2018-04-19T01:03:14.979Z,0.00
2018-04-19T01:04:14.936Z,0.00
2018-04-19T01:05:14.897Z,0.00
2018-04-19T01:06:14.853Z,0.00
2018-04-19T01:07:14.813Z,0.00
2018-04-19T01:08:14.771Z,0.00
2018-04-19T01:09:14.733Z,0.00
2018-04-19T01:10:14.697Z,0.00
2018-04-19T01:11:14.648Z,0.00
2018-04-19T01:12:14.610Z,0.00
2018-04-19T01:13:14.569Z,0.00
2018-04-19T01:14:14.531Z,0.00
2018-04-19T01:15:14.483Z,0.00
2018-04-19T01:16:14.443Z,0.00
2018-04-19T01:17:14.399Z,0.00
2018-04-19T01:18:14.357Z,0.00
2018-04-19T01:19:14.320Z,0.00
2018-04-19T01:20:14.276Z,0.00
2018-04-19T01:21:14.233Z,0.00
2018-04-19T01:22:14.192Z,0.00
2018-04-19T01:23:14.152Z,0.00
2018-04-19T01:24:14.111Z,0.00
2018-04-19T01:25:14.069Z,0.00
2018-04-19T01:26:14.030Z,0.00
2018-04-19T01:27:13.985Z,0.00
2018-04-19T01:28:13.945Z,0.00
2018-04-19T01:29:13.973Z,0.00
2018-04-19T01:30:13.862Z,0.00
2018-04-19T01:31:13.821Z,0.00
2018-04-19T01:32:13.785Z,0.00
2018-04-19T01:33:13.738Z,0.00
2018-04-19T01:34:13.696Z,0.00
2018-04-19T01:35:13.654Z,0.00
2018-04-19T01:36:13.613Z,0.00
2018-04-19T01:37:13.573Z,0.00
2018-04-19T01:38:13.532Z,0.00
2018-04-19T01:39:13.488Z,0.00
2018-04-19T01:40:13.454Z,0.00
2018-04-19T01:41:13.406Z,0.00
2018-04-19T01:42:13.367Z,0.00
2018-04-19T01:43:13.324Z,0.00
2018-04-19T01:44:13.287Z,0.00
2018-04-19T01:45:13.241Z,0.00
2018-04-19T01:46:13.201Z,0.00
2018-04-19T01:47:13.157Z,0.00
2018-04-19T01:48:13.116Z,0.00
2018-04-19T01:49:13.076Z,0.00
2018-04-19T01:50:13.035Z,0.00
2018-04-19T01:51:12.993Z,0.00
2018-04-19T01:52:12.951Z,0.00
2018-04-19T01:53:12.908Z,0.00
2018-04-19T01:54:12.873Z,0.00
2018-04-19T01:55:12.826Z,0.00
2018-04-19T01:56:12.791Z,0.00
2018-04-19T01:57:12.746Z,0.00
2018-04-19T01:58:12.702Z,0.00
2018-04-19T01:59:12.662Z,0.00
2018-04-19T02:00:12.625Z,0.00
2018-04-19T02:01:12.577Z,0.00
2018-04-19T02:02:12.540Z,0.00
2018-04-19T02:03:12.494Z,0.00
2018-04-19T02:04:12.457Z,0.00
2018-04-19T02:05:12.413Z,0.00
2018-04-19T02:06:12.368Z,0.00
2018-04-19T02:07:12.347Z,0.00
2018-04-19T02:08:12.287Z,0.00
2018-04-19T02:09:12.243Z,0.00
2018-04-19T02:10:12.200Z,0.00
2018-04-19T02:11:12.163Z,0.00
2018-04-19T02:12:12.119Z,0.00
2018-04-19T02:13:12.076Z,0.00
2018-04-19T02:14:12.035Z,0.00
2018-04-19T02:15:11.996Z,0.00
2018-04-19T02:16:11.954Z,0.00
2018-04-19T02:17:11.913Z,0.00
2018-04-19T02:18:11.871Z,0.00
2018-04-19T02:19:11.870Z,0.00
2018-04-19T02:20:11.791Z,0.00
2018-04-19T02:21:11.746Z,0.00
2018-04-19T02:22:11.703Z,0.00
2018-04-19T02:23:11.665Z,0.00
2018-04-19T02:24:11.624Z,0.00
2018-04-19T02:25:11.578Z,0.00
2018-04-19T02:26:11.539Z,0.00
2018-04-19T02:27:11.496Z,0.00
2018-04-19T02:28:11.453Z,0.00
2018-04-19T02:29:11.416Z,0.00
2018-04-19T02:30:11.372Z,0.00
2018-04-19T02:31:11.329Z,0.00
2018-04-19T02:32:11.289Z,0.00
2018-04-19T02:33:11.247Z,0.00
2018-04-19T02:34:11.202Z,0.00
2018-04-19T02:35:11.161Z,0.00
2018-04-19T02:36:11.120Z,0.00
2018-04-19T02:37:11.078Z,0.00
2018-04-19T02:38:11.037Z,0.00
2018-04-19T02:39:10.998Z,0.00
2018-04-19T02:40:10.957Z,0.00
2018-04-19T02:41:10.915Z,0.00
2018-04-19T02:42:10.876Z,0.00
2018-04-19T02:43:10.836Z,0.00
2018-04-19T02:44:10.789Z,0.00
2018-04-19T02:45:10.745Z,0.00
2018-04-19T02:46:10.703Z,0.00
2018-04-19T02:47:10.664Z,0.00
2018-04-19T02:48:10.619Z,0.00
2018-04-19T02:49:10.576Z,0.00
2018-04-19T02:50:10.537Z,0.00
2018-04-19T02:51:10.495Z,0.00
2018-04-19T02:52:10.451Z,0.00
2018-04-19T02:53:10.412Z,0.00
2018-04-19T02:54:10.371Z,0.00
2018-04-19T02:55:10.327Z,0.00
2018-04-19T02:56:10.288Z,0.00
2018-04-19T02:57:10.242Z,0.00
2018-04-19T02:58:10.205Z,0.00
2018-04-19T02:59:10.165Z,0.00
2018-04-19T03:00:10.134Z,0.00
2018-04-19T03:01:10.073Z,0.00
2018-04-19T03:02:10.036Z,0.00
2018-04-19T03:03:09.994Z,0.00
2018-04-19T03:04:09.952Z,0.00
2018-04-19T03:05:09.910Z,0.00
2018-04-19T03:06:09.894Z,0.00
2018-04-19T03:07:09.854Z,0.00
2018-04-19T03:08:09.813Z,0.00
2018-04-19T03:09:09.769Z,0.00
2018-04-19T03:10:09.731Z,0.00
2018-04-19T03:11:09.660Z,0.00
2018-04-19T03:12:09.615Z,0.00
2018-04-19T03:13:09.573Z,0.00
2018-04-19T03:14:09.532Z,0.00
2018-04-19T03:15:09.489Z,0.00
2018-04-19T03:16:09.452Z,0.00
2018-04-19T03:17:09.406Z,0.00
2018-04-19T03:18:09.368Z,0.00
2018-04-19T03:19:09.321Z,0.00
2018-04-19T03:20:09.280Z,0.00
2018-04-19T03:21:09.237Z,0.00
2018-04-19T03:22:09.194Z,0.00
2018-04-19T03:23:09.155Z,0.00
2018-04-19T03:24:09.115Z,0.00
2018-04-19T03:25:09.074Z,0.00
2018-04-19T03:26:09.030Z,0.00
2018-04-19T03:27:08.986Z,0.00
2018-04-19T03:28:08.944Z,0.00
2018-04-19T03:29:08.911Z,0.00
2018-04-19T03:30:08.876Z,0.00
2018-04-19T03:31:08.820Z,0.00
2018-04-19T03:32:08.780Z,0.00
2018-04-19T03:33:08.739Z,0.00
2018-04-19T03:34:08.694Z,0.00
2018-04-19T03:35:08.653Z,0.00
2018-04-19T03:36:08.618Z,0.00
2018-04-19T03:37:08.575Z,0.00
2018-04-19T03:38:08.528Z,0.00
2018-04-19T03:39:08.489Z,0.00
2018-04-19T03:40:08.443Z,0.00
2018-04-19T03:41:08.404Z,0.00
2018-04-19T03:42:08.358Z,0.00
2018-04-19T03:43:08.319Z,0.00
2018-04-19T03:44:08.276Z,0.00
2018-04-19T03:45:08.233Z,0.00
2018-04-19T03:46:08.194Z,0.00
2018-04-19T03:47:08.149Z,0.00
2018-04-19T03:48:08.108Z,0.00
2018-04-19T03:49:08.066Z,0.00
2018-04-19T03:50:08.024Z,0.00
2018-04-19T03:51:07.982Z,0.00
2018-04-19T03:52:07.944Z,0.00
2018-04-19T03:53:07.897Z,0.00
2018-04-19T03:54:07.854Z,0.00
2018-04-19T03:55:07.815Z,0.00
2018-04-19T03:56:07.775Z,0.00
2018-04-19T03:57:07.728Z,0.00
2018-04-19T03:58:07.689Z,0.00
2018-04-19T03:59:07.647Z,0.00
2018-04-19T04:00:07.604Z,0.00
2018-04-19T04:01:07.659Z,0.00
2018-04-19T04:02:07.520Z,0.00
2018-04-19T04:03:07.503Z,4.00
2018-04-19T04:04:07.436Z,4.00
2018-04-19T04:05:07.394Z,0.00
2018-04-19T04:06:07.352Z,4.00
2018-04-19T04:07:07.312Z,4.00
2018-04-19T04:08:07.272Z,4.00
2018-04-19T04:09:07.225Z,4.00
2018-04-19T04:10:07.184Z,4.00
2018-04-19T04:11:07.140Z,8.00
2018-04-19T04:12:07.149Z,8.00
2018-04-19T04:13:07.058Z,8.00
2018-04-19T04:14:07.014Z,8.00
2018-04-19T04:15:06.971Z,12.00
2018-04-19T04:16:06.930Z,16.00
2018-04-19T04:17:06.895Z,20.00
2018-04-19T04:18:06.849Z,20.00
2018-04-19T04:19:06.807Z,24.00
2018-04-19T04:20:06.768Z,28.00
2018-04-19T04:21:06.720Z,32.00
2018-04-19T04:22:06.703Z,36.00
2018-04-19T04:23:06.645Z,40.00
2018-04-19T04:24:06.599Z,44.00
2018-04-19T04:25:06.553Z,48.00
2018-04-19T04:26:06.514Z,56.00
2018-04-19T04:27:06.466Z,64.00
2018-04-19T04:28:06.426Z,72.00
2018-04-19T04:29:06.393Z,80.00
2018-04-19T04:30:06.364Z,84.00
2018-04-19T04:31:06.337Z,96.00
2018-04-19T04:32:06.260Z,108.00
2018-04-19T04:33:06.216Z,116.00
2018-04-19T04:34:06.180Z,124.00
2018-04-19T04:35:06.130Z,136.00
2018-04-19T04:36:06.097Z,148.00
2018-04-19T04:37:06.044Z,160.00
2018-04-19T04:38:06.009Z,172.00
2018-04-19T04:39:05.960Z,180.00
2018-04-19T04:40:05.919Z,196.00
2018-04-19T04:41:05.876Z,204.00
2018-04-19T04:42:05.833Z,220.00
2018-04-19T04:43:05.790Z,232.00
2018-04-19T04:44:05.749Z,244.00
2018-04-19T04:45:05.706Z,260.00
2018-04-19T04:46:05.664Z,272.00
2018-04-19T04:47:05.622Z,288.00
2018-04-19T04:48:05.583Z,300.00
2018-04-19T04:49:05.539Z,316.00
2018-04-19T04:50:05.495Z,328.00
2018-04-19T04:51:05.454Z,344.00
2018-04-19T04:52:05.414Z,360.00
2018-04-19T04:53:05.369Z,372.00
2018-04-19T04:54:05.328Z,388.00
2018-04-19T04:55:05.284Z,400.00
2018-04-19T04:56:05.245Z,416.00
2018-04-19T04:57:05.200Z,432.00
2018-04-19T04:58:05.160Z,448.00
2018-04-19T04:59:05.115Z,460.00
2018-04-19T05:00:05.120Z,476.00
2018-04-19T05:01:05.031Z,488.00
2018-04-19T05:02:04.988Z,504.00
2018-04-19T05:03:04.950Z,516.00
2018-04-19T05:04:04.905Z,528.00
2018-04-19T05:05:04.861Z,540.00
2018-04-19T05:06:04.821Z,556.00
2018-04-19T05:07:04.777Z,568.00
2018-04-19T05:08:04.738Z,580.00
2018-04-19T05:09:04.694Z,596.00
2018-04-19T05:10:04.652Z,604.00
2018-04-19T05:11:04.609Z,620.00
2018-04-19T05:12:04.566Z,628.00
2018-04-19T05:13:04.527Z,640.00
2018-04-19T05:14:04.482Z,652.00
2018-04-19T05:15:04.442Z,660.00
2018-04-19T05:16:04.399Z,668.00
2018-04-19T05:17:04.355Z,680.00
2018-04-19T05:18:04.314Z,688.00
2018-04-19T05:19:04.273Z,700.00
2018-04-19T05:20:04.229Z,712.00
2018-04-19T05:21:04.186Z,720.00
2018-04-19T05:22:04.146Z,732.00
2018-04-19T05:23:04.103Z,740.00
2018-04-19T05:24:04.061Z,748.00
2018-04-19T05:25:04.018Z,760.00
2018-04-19T05:26:03.976Z,768.00
2018-04-19T05:27:03.937Z,780.00
2018-04-19T05:28:03.896Z,784.00
2018-04-19T05:29:03.850Z,792.00
2018-04-19T05:30:03.808Z,804.00
2018-04-19T05:31:03.766Z,812.00
2018-04-19T05:32:03.725Z,820.00
2018-04-19T05:33:03.685Z,828.00
2018-04-19T05:34:03.638Z,836.00
2018-04-19T05:35:03.602Z,840.00
2018-04-19T05:36:03.556Z,852.00
2018-04-19T05:37:03.514Z,860.00
2018-04-19T05:38:03.472Z,864.00
2018-04-19T05:39:03.433Z,868.00
2018-04-19T05:40:03.391Z,880.00
2018-04-19T05:41:03.345Z,884.00
2018-04-19T05:42:03.306Z,892.00
2018-04-19T05:43:03.261Z,896.00
2018-04-19T05:44:03.227Z,904.00
2018-04-19T05:45:03.176Z,916.00
2018-04-19T05:46:03.137Z,916.00
2018-04-19T05:47:03.095Z,924.00
2018-04-19T05:48:03.052Z,936.00
2018-04-19T05:49:03.011Z,936.00
2018-04-19T05:50:02.970Z,948.00
2018-04-19T05:51:02.927Z,952.00
2018-04-19T05:52:02.881Z,960.00
2018-04-19T05:53:02.846Z,964.00
2018-04-19T05:54:02.798Z,972.00
2018-04-19T05:55:02.755Z,980.00
2018-04-19T05:56:02.717Z,988.00
2018-04-19T05:57:02.671Z,996.00
2018-04-19T05:58:02.631Z,1000.00
2018-04-19T05:59:02.588Z,1008.00
2018-04-19T06:00:02.548Z,1016.00
2018-04-19T06:01:02.506Z,1020.00
2018-04-19T06:02:02.472Z,1024.00
2018-04-19T06:03:02.433Z,1032.00
2018-04-19T06:04:02.382Z,1036.00
2018-04-19T06:05:02.343Z,1044.00
2018-04-19T06:06:02.297Z,1052.00
2018-04-19T06:07:02.255Z,1056.00
2018-04-19T06:08:02.214Z,1064.00
2018-04-19T06:09:02.171Z,1072.00
2018-04-19T06:10:02.128Z,1076.00
2018-04-19T06:11:02.091Z,1080.00
2018-04-19T06:12:02.046Z,1088.00
2018-04-19T06:13:02.003Z,1096.00
2018-04-19T06:14:01.963Z,1100.00
2018-04-19T06:15:01.925Z,1100.00
2018-04-19T06:16:01.879Z,1108.00
2018-04-19T06:17:01.838Z,1112.00
2018-04-19T06:18:01.796Z,1120.00
2018-04-19T06:19:01.754Z,1128.00
2018-04-19T06:20:01.712Z,1136.00
2018-04-19T06:21:01.671Z,1136.00
2018-04-19T06:22:01.644Z,1140.00
2018-04-19T06:23:01.590Z,1144.00
2018-04-19T06:24:01.548Z,1144.00
2018-04-19T06:25:01.505Z,1160.00
2018-04-19T06:26:01.469Z,1168.00
2018-04-19T06:27:01.423Z,1164.00
2018-04-19T06:28:01.381Z,1172.00
2018-04-19T06:29:01.342Z,1172.00
2018-04-19T06:30:01.301Z,1168.00
2018-04-19T06:31:01.258Z,1148.00
2018-04-19T06:32:01.217Z,1148.00
2018-04-19T06:33:01.175Z,1172.00
2018-04-19T06:34:01.134Z,1188.00
2018-04-19T06:35:01.097Z,1212.00
2018-04-19T06:36:01.101Z,1236.00
2018-04-19T06:37:01.012Z,1248.00
2018-04-19T06:38:00.969Z,1256.00
2018-04-19T06:39:00.939Z,1268.00
2018-04-19T06:40:00.888Z,1280.00
2018-04-19T06:41:00.849Z,1292.00
2018-04-19T06:42:00.813Z,1296.00
2018-04-19T06:43:00.767Z,1316.00
2018-04-19T06:44:00.727Z,1332.00
2018-04-19T06:45:00.687Z,1344.00
2018-04-19T06:46:00.646Z,1360.00
2018-04-19T06:47:00.605Z,1376.00
2018-04-19T06:48:00.560Z,1384.00
2018-04-19T06:49:00.521Z,1396.00
2018-04-19T06:50:00.476Z,1412.00
2018-04-19T06:51:00.437Z,1424.00
2018-04-19T06:52:00.398Z,1436.00
2018-04-19T06:53:00.356Z,1448.00
2018-04-19T06:54:00.315Z,1460.00
2018-04-19T06:55:00.278Z,1472.00
2018-04-19T06:56:00.234Z,1484.00
2018-04-19T06:57:00.195Z,1496.00
2018-04-19T06:58:00.152Z,1508.00
2018-04-19T06:59:00.113Z,1520.00
2018-04-19T07:00:00.071Z,1540.00
2018-04-19T07:01:00.049Z,1552.00
2018-04-19T07:01:59.988Z,1568.00
2018-04-19T07:02:59.951Z,1584.00
2018-04-19T07:03:59.909Z,1600.00
2018-04-19T07:04:59.870Z,1616.00
2018-04-19T07:05:59.829Z,1640.00
2018-04-19T07:06:59.786Z,1648.00
2018-04-19T07:07:59.747Z,1668.00
2018-04-19T07:08:59.708Z,1696.00
2018-04-19T07:09:59.668Z,1716.00
2018-04-19T07:10:59.628Z,1732.00
2018-04-19T07:11:59.587Z,1752.00
2018-04-19T07:12:59.547Z,1764.00
2018-04-19T07:13:59.506Z,1784.00
2018-04-19T07:14:59.465Z,1804.00
2018-04-19T07:15:59.429Z,1824.00
2018-04-19T07:16:59.407Z,1848.00
2018-04-19T07:17:59.355Z,1876.00
2018-04-19T07:18:59.306Z,1892.00
2018-04-19T07:19:59.267Z,1912.00
2018-04-19T07:20:59.225Z,1928.00
2018-04-19T07:21:59.190Z,1932.00
2018-04-19T07:22:59.150Z,1948.00
2018-04-19T07:23:59.107Z,1964.00
2018-04-19T07:24:59.069Z,1980.00
2018-04-19T07:25:59.029Z,1992.00
2018-04-19T07:26:58.985Z,2012.00
2018-04-19T07:27:58.949Z,2032.00
2018-04-19T07:28:58.907Z,2056.00
2018-04-19T07:29:58.869Z,2072.00
2018-04-19T07:30:58.832Z,2088.00
2018-04-19T07:31:58.787Z,2108.00
2018-04-19T07:32:58.753Z,2124.00
2018-04-19T07:33:58.719Z,2136.00
2018-04-19T07:34:58.672Z,2148.00
2018-04-19T07:35:58.631Z,2156.00
2018-04-19T07:36:58.590Z,2164.00
2018-04-19T07:37:58.555Z,2172.00
2018-04-19T07:38:58.516Z,2184.00
2018-04-19T07:39:58.474Z,2196.00
2018-04-19T07:40:58.438Z,2228.00
2018-04-19T07:41:58.410Z,2180.00
2018-04-19T07:42:58.358Z,2188.00
2018-04-19T07:43:58.320Z,2204.00
2018-04-19T07:44:58.279Z,2216.00
2018-04-19T07:45:58.244Z,2232.00
2018-04-19T07:46:58.201Z,2248.00
2018-04-19T07:47:58.162Z,2264.00
2018-04-19T07:48:58.121Z,2272.00
2018-04-19T07:49:58.081Z,2280.00
2018-04-19T07:50:58.043Z,2288.00
2018-04-19T07:51:58.006Z,2296.00
2018-04-19T07:52:57.966Z,2300.00
2018-04-19T07:53:57.929Z,2316.00
2018-04-19T07:54:57.890Z,2324.00
2018-04-19T07:55:57.850Z,2336.00
2018-04-19T07:56:57.811Z,2348.00
2018-04-19T07:57:57.836Z,2356.00
2018-04-19T07:58:57.735Z,2364.00
2018-04-19T07:59:57.696Z,2388.00
2018-04-19T08:00:57.659Z,2396.00
2018-04-19T08:01:57.621Z,2416.00
2018-04-19T08:02:57.581Z,2432.00
2018-04-19T08:03:57.543Z,2440.00
2018-04-19T08:04:57.505Z,2456.00
2018-04-19T08:05:57.465Z,2464.00
2018-04-19T08:06:57.428Z,2480.00
2018-04-19T08:07:57.393Z,2504.00
2018-04-19T08:08:57.351Z,2516.00
2018-04-19T08:09:57.314Z,2508.00
2018-04-19T08:10:57.277Z,2512.00
2018-04-19T08:11:57.242Z,2532.00
2018-04-19T08:12:57.200Z,2552.00
2018-04-19T08:13:57.164Z,2572.00
2018-04-19T08:14:57.125Z,2584.00
2018-04-19T08:15:57.090Z,2600.00
2018-04-19T08:16:57.050Z,2620.00
2018-04-19T08:17:57.012Z,2636.00
2018-04-19T08:18:56.998Z,2652.00
2018-04-19T08:19:56.937Z,2660.00
2018-04-19T08:20:56.900Z,2688.00
2018-04-19T08:21:56.863Z,2700.00
2018-04-19T08:22:56.826Z,2712.00
2018-04-19T08:23:56.794Z,2724.00
2018-04-19T08:24:56.752Z,2736.00
2018-04-19T08:25:56.717Z,2752.00
2018-04-19T08:26:56.678Z,2752.00
2018-04-19T08:27:56.641Z,2756.00
2018-04-19T08:28:56.606Z,2772.00
2018-04-19T08:29:56.570Z,2784.00
2018-04-19T08:30:56.532Z,2804.00
2018-04-19T08:31:56.497Z,2812.00
2018-04-19T08:32:56.463Z,2836.00
2018-04-19T08:33:56.430Z,2856.00
2018-04-19T08:34:56.390Z,2868.00
2018-04-19T08:35:56.353Z,2888.00
2018-04-19T08:36:56.318Z,2904.00
2018-04-19T08:37:56.283Z,2928.00
2018-04-19T08:38:56.248Z,2948.00
2018-04-19T08:39:56.213Z,2960.00
2018-04-19T08:40:56.179Z,2976.00
2018-04-19T08:41:56.148Z,2996.00
2018-04-19T08:42:56.112Z,3024.00
2018-04-19T08:43:56.077Z,3044.00
2018-04-19T08:44:56.046Z,3060.00
2018-04-19T08:45:56.009Z,3088.00
2018-04-19T08:46:55.987Z,3124.00
2018-04-19T08:47:55.942Z,3156.00
2018-04-19T08:48:55.913Z,3176.00
2018-04-19T08:49:55.874Z,3204.00
2018-04-19T08:50:55.845Z,3228.00
2018-04-19T08:51:55.809Z,3236.00
2018-04-19T08:52:55.774Z,3240.00
2018-04-19T08:53:55.747Z,3260.00
2018-04-19T08:54:55.709Z,3272.00
2018-04-19T08:55:55.680Z,3288.00
2018-04-19T08:56:55.648Z,3328.00
2018-04-19T08:57:55.612Z,3352.00
2018-04-19T08:58:55.578Z,3380.00
2018-04-19T08:59:55.545Z,3392.00
2018-04-19T09:00:55.513Z,3424.00
2018-04-19T09:01:55.484Z,3420.00
2018-04-19T09:02:55.449Z,3424.00
2018-04-19T09:03:55.418Z,3444.00
2018-04-19T09:04:55.385Z,3456.00
2018-04-19T09:05:55.355Z,3460.00
2018-04-19T09:06:55.328Z,3452.00
2018-04-19T09:07:55.296Z,3460.00
2018-04-19T09:08:57.013Z,3460.00
2018-04-19T09:09:55.228Z,3460.00
2018-04-19T09:10:55.196Z,3464.00
2018-04-19T09:11:55.164Z,3464.00
2018-04-19T09:12:55.136Z,3472.00
2018-04-19T09:13:55.101Z,3500.00
2018-04-19T09:14:55.071Z,3536.00
2018-04-19T09:15:55.040Z,3568.00
2018-04-19T09:16:55.007Z,3592.00
2018-04-19T09:17:54.980Z,3616.00
2018-04-19T09:18:54.948Z,3632.00
2018-04-19T09:19:54.915Z,3628.00
2018-04-19T09:20:54.891Z,3632.00
2018-04-19T09:21:54.857Z,3616.00
2018-04-19T09:22:54.824Z,3624.00
2018-04-19T09:23:54.793Z,3620.00
2018-04-19T09:24:54.765Z,3620.00
2018-04-19T09:25:54.731Z,3604.00
2018-04-19T09:26:54.709Z,3628.00
2018-04-19T09:27:54.671Z,3616.00
2018-04-19T09:28:54.644Z,3640.00
2018-04-19T09:29:54.615Z,3616.00
2018-04-19T09:30:54.580Z,3596.00
2018-04-19T09:31:54.550Z,3624.00
2018-04-19T09:32:54.521Z,3640.00
2018-04-19T09:33:54.492Z,3628.00
2018-04-19T09:34:54.462Z,3624.00
2018-04-19T09:35:54.431Z,3616.00
2018-04-19T09:36:54.399Z,3612.00
2018-04-19T09:37:54.371Z,3608.00
2018-04-19T09:38:54.343Z,3596.00
2018-04-19T09:39:54.314Z,3604.00
2018-04-19T09:40:54.282Z,3592.00
2018-04-19T09:41:54.272Z,3284.00
2018-04-19T09:42:54.239Z,3292.00
2018-04-19T09:43:54.196Z,3272.00
2018-04-19T09:44:54.160Z,3276.00
2018-04-19T09:45:54.135Z,3284.00
2018-04-19T09:46:54.105Z,3264.00
2018-04-19T09:47:54.080Z,3292.00
2018-04-19T09:48:54.041Z,3304.00
2018-04-19T09:49:54.009Z,3300.00
2018-04-19T09:50:53.980Z,3316.00
2018-04-19T09:51:53.956Z,3344.00
2018-04-19T09:52:53.929Z,3356.00
2018-04-19T09:53:53.986Z,3364.00
2018-04-19T09:54:53.860Z,2272.00
2018-04-19T09:55:53.833Z,2288.00
2018-04-19T09:56:53.799Z,2300.00
2018-04-19T09:57:53.768Z,2308.00
2018-04-19T09:58:53.737Z,2332.00
2018-04-19T09:59:53.708Z,2340.00
2018-04-19T10:00:53.678Z,2336.00
2018-04-19T10:01:53.666Z,2348.00
2018-04-19T10:02:53.617Z,2340.00
2018-04-19T10:03:53.591Z,2332.00
2018-04-19T10:04:53.556Z,2320.00
2018-04-19T10:05:53.526Z,2308.00
2018-04-19T10:06:53.498Z,2292.00
2018-04-19T10:07:53.470Z,2272.00
2018-04-19T10:08:53.435Z,2280.00
2018-04-19T10:09:57.409Z,2264.00
2018-04-19T10:10:53.423Z,2252.00
2018-04-19T10:11:53.356Z,2240.00
2018-04-19T10:12:53.314Z,2248.00
2018-04-19T10:13:53.287Z,2256.00
2018-04-19T10:14:53.257Z,2260.00
2018-04-19T10:15:53.287Z,2264.00
2018-04-19T10:16:53.194Z,2268.00
2018-04-19T10:17:53.162Z,2272.00
2018-04-19T10:18:53.133Z,2288.00
2018-04-19T10:19:53.105Z,2300.00
2018-04-19T10:20:53.073Z,2312.00
2018-04-19T10:21:53.043Z,2332.00
2018-04-19T10:22:53.013Z,2348.00
2018-04-19T10:23:53.073Z,2356.00
2018-04-19T10:24:52.967Z,2364.00
2018-04-19T10:25:52.938Z,2388.00
2018-04-19T10:26:52.893Z,2400.00
2018-04-19T10:27:52.959Z,2412.00
2018-04-19T10:28:52.860Z,2436.00
2018-04-19T10:29:52.825Z,2456.00
2018-04-19T10:30:52.818Z,2472.00
2018-04-19T10:31:52.762Z,2492.00
2018-04-19T10:32:52.710Z,2512.00
2018-04-19T10:33:52.735Z,2532.00
2018-04-19T10:34:52.648Z,2548.00
2018-04-19T10:35:52.626Z,2584.00
2018-04-19T10:36:52.590Z,2580.00
2018-04-19T10:37:52.557Z,2592.00
2018-04-19T10:38:52.527Z,2612.00
2018-04-19T10:39:52.496Z,2632.00
2018-04-19T10:40:52.465Z,2656.00
2018-04-19T10:41:52.433Z,2676.00
2018-04-19T10:42:52.404Z,2700.00
2018-04-19T10:43:52.374Z,2724.00
2018-04-19T10:44:52.348Z,2732.00
2018-04-19T10:45:52.313Z,2752.00
2018-04-19T10:46:52.282Z,2768.00
2018-04-19T10:47:52.251Z,2792.00
2018-04-19T10:48:52.223Z,2800.00
2018-04-19T10:49:52.191Z,2812.00
2018-04-19T10:50:52.169Z,2836.00
2018-04-19T10:51:52.131Z,2856.00
2018-04-19T10:52:52.098Z,2888.00
2018-04-19T10:53:52.069Z,2924.00
2018-04-19T10:54:52.039Z,2932.00
2018-04-19T10:55:52.008Z,2944.00
2018-04-19T10:56:51.978Z,2964.00
2018-04-19T10:57:51.948Z,2992.00
2018-04-19T10:58:51.916Z,2992.00
2018-04-19T10:59:51.887Z,2988.00
2018-04-19T11:00:51.868Z,2996.00
2018-04-19T11:01:51.825Z,3004.00
2018-04-19T11:02:51.795Z,3032.00
2018-04-19T11:03:51.768Z,3068.00
2018-04-19T11:04:51.736Z,3148.00
2018-04-19T11:05:51.704Z,3544.00
2018-04-19T11:06:51.674Z,4432.00
2018-04-19T11:07:51.648Z,5040.00
2018-04-19T11:08:51.613Z,5088.00
2018-04-19T11:09:51.582Z,5056.00
2018-04-19T11:10:51.553Z,5124.00
2018-04-19T11:11:51.522Z,5168.00
2018-04-19T11:12:51.492Z,5044.00
2018-04-19T11:13:51.462Z,4976.00
2018-04-19T11:14:51.432Z,4972.00
2018-04-19T11:15:51.405Z,4964.00
2018-04-19T11:16:51.375Z,4980.00
2018-04-19T11:17:51.342Z,4980.00
2018-04-19T11:18:51.316Z,4928.00
2018-04-19T11:19:51.284Z,4876.00
2018-04-19T11:20:51.263Z,4784.00
2018-04-19T11:21:51.226Z,4800.00
2018-04-19T11:22:51.200Z,4792.00
2018-04-19T11:23:51.185Z,4708.00
2018-04-19T11:24:51.139Z,4664.00
2018-04-19T11:25:51.110Z,4652.00
2018-04-19T11:26:51.081Z,4636.00
2018-04-19T11:27:51.052Z,4640.00
2018-04-19T11:28:51.024Z,4680.00
2018-04-19T11:29:51.006Z,4596.00
2018-04-19T11:30:50.967Z,4576.00
2018-04-19T11:31:50.943Z,4648.00
2018-04-19T11:32:50.914Z,4600.00
2018-04-19T11:33:50.883Z,4548.00
2018-04-19T11:34:50.856Z,4448.00
2018-04-19T11:35:50.831Z,4480.00
2018-04-19T11:36:50.802Z,4516.00
2018-04-19T11:37:50.781Z,4464.00
2018-04-19T11:38:50.754Z,4368.00
2018-04-19T11:39:50.726Z,4648.00
2018-04-19T11:40:50.695Z,3696.00
2018-04-19T11:41:50.679Z,3540.00
2018-04-19T11:42:50.656Z,3696.00
2018-04-19T11:43:50.628Z,3704.00
2018-04-19T11:44:50.586Z,3528.00
2018-04-19T11:45:50.559Z,3440.00
2018-04-19T11:46:50.536Z,3332.00
2018-04-19T11:47:50.507Z,3256.00
2018-04-19T11:48:50.479Z,3224.00
2018-04-19T11:49:50.452Z,3264.00
2018-04-19T11:50:50.426Z,3312.00
2018-04-19T11:51:50.400Z,3232.00
2018-04-19T11:52:50.375Z,3120.00
2018-04-19T11:53:50.347Z,3188.00
2018-04-19T11:54:50.321Z,3120.00
2018-04-19T11:55:50.300Z,3100.00
2018-04-19T11:56:50.289Z,3040.00
2018-04-19T11:57:50.270Z,3040.00
2018-04-19T11:58:50.215Z,3060.00
2018-04-19T11:59:50.189Z,3088.00
2018-04-19T12:00:50.163Z,3040.00
2018-04-19T12:01:50.136Z,2856.00
2018-04-19T12:02:50.109Z,2924.00
2018-04-19T12:03:50.084Z,2884.00
2018-04-19T12:04:50.059Z,2848.00
2018-04-19T12:05:50.036Z,2836.00
2018-04-19T12:06:50.005Z,2828.00
2018-04-19T12:07:49.978Z,2880.00
2018-04-19T12:08:49.951Z,2928.00
2018-04-19T12:09:49.927Z,2932.00
2018-04-19T12:10:49.902Z,2876.00
2018-04-19T12:11:49.878Z,2852.00
2018-04-19T12:12:49.893Z,2864.00
2018-04-19T12:13:49.848Z,2868.00
2018-04-19T12:14:49.796Z,2852.00
2018-04-19T12:15:49.771Z,2788.00
2018-04-19T12:16:49.742Z,2764.00
2018-04-19T12:17:49.717Z,2816.00
2018-04-19T12:18:49.690Z,2732.00
2018-04-19T12:19:49.665Z,2856.00
2018-04-19T12:20:49.638Z,2816.00
2018-04-19T12:21:49.616Z,2700.00
2018-04-19T12:22:49.590Z,2664.00
2018-04-19T12:23:49.561Z,2604.00
2018-04-19T12:24:49.531Z,2548.00
2018-04-19T12:25:49.505Z,2520.00
2018-04-19T12:26:49.479Z,2500.00
2018-04-19T12:27:49.453Z,2516.00
2018-04-19T12:28:49.432Z,2376.00
2018-04-19T12:29:49.401Z,1620.00
2018-04-19T12:30:49.373Z,1332.00
2018-04-19T12:31:49.348Z,1288.00